Terminal Aerodrome Forecast
Issued by NWS Jacksonville, FL

Home | Current Version | Previous Version | Text Only | Print | Product List | Glossary On
Versions: 1 2 3 4 5 6 7 8 9 10 11 12 13 14 15 16 17 18 19 20 21 22 23
000
FTUS42 KJAX 231459 AAG
TAFSSI
TAF AMD
KSSI 231459Z 2315/2412 16010G17KT P6SM VCSH BKN005 OVC080
      TEMPO 2315/2317 4SM -SHRA
     FM231700 16015G25KT P6SM VCTS BKN030CB OVC090
     FM232300 18012KT P6SM VCSH OVC020=

USA.gov is the U.S. government's official web portal to all federal, state and local government web resources and services.